sensor_id;sensor_type;location;lat;lon;timestamp;P1;durP1;ratioP1;P2;durP2;ratioP2
69185;SDS011;56298;49.246;9.410;2023-02-26T00:00:13;12.93;;;11.60;;
69185;SDS011;56298;49.246;9.410;2023-02-26T00:02:40;12.18;;;11.18;;
69185;SDS011;56298;49.246;9.410;2023-02-26T00:05:06;14.38;;;13.07;;
69185;SDS011;56298;49.246;9.410;2023-02-26T00:07:32;13.57;;;12.30;;
69185;SDS011;56298;49.246;9.410;2023-02-26T00:09:58;12.50;;;11.50;;
69185;SDS011;56298;49.246;9.410;2023-02-26T00:12:25;13.18;;;12.18;;
69185;SDS011;56298;49.246;9.410;2023-02-26T00:14:50;13.45;;;12.25;;
69185;SDS011;56298;49.246;9.410;2023-02-26T00:20:04;13.48;;;12.38;;
69185;SDS011;56298;49.246;9.410;2023-02-26T00:22:30;12.30;;;11.10;;
69185;SDS011;56298;49.246;9.410;2023-02-26T00:24:55;12.70;;;11.50;;
69185;SDS011;56298;49.246;9.410;2023-02-26T00:27:21;14.23;;;13.00;;
69185;SDS011;56298;49.246;9.410;2023-02-26T00:29:46;13.13;;;11.93;;
69185;SDS011;56298;49.246;9.410;2023-02-26T00:32:12;13.73;;;12.43;;
69185;SDS011;56298;49.246;9.410;2023-02-26T00:34:37;12.37;;;11.37;;
69185;SDS011;56298;49.246;9.410;2023-02-26T00:37:11;13.07;;;11.77;;
69185;SDS011;56298;49.246;9.410;2023-02-26T00:39:54;13.30;;;12.10;;
69185;SDS011;56298;49.246;9.410;2023-02-26T00:42:29;12.30;;;11.17;;
69185;SDS011;56298;49.246;9.410;2023-02-26T00:44:54;12.53;;;11.53;;
69185;SDS011;56298;49.246;9.410;2023-02-26T00:47:28;11.43;;;10.37;;
69185;SDS011;56298;49.246;9.410;2023-02-26T00:55:05;12.40;;;11.32;;
69185;SDS011;56298;49.246;9.410;2023-02-26T00:57:30;12.93;;;11.60;;
69185;SDS011;56298;49.246;9.410;2023-02-26T00:59:56;13.50;;;12.40;;
69185;SDS011;56298;49.246;9.410;2023-02-26T01:02:21;12.30;;;11.10;;
69185;SDS011;56298;49.246;9.410;2023-02-26T01:04:46;14.03;;;12.93;;
69185;SDS011;56298;49.246;9.410;2023-02-26T01:07:12;12.93;;;11.93;;
69185;SDS011;56298;49.246;9.410;2023-02-26T01:09:38;13.68;;;12.40;;
69185;SDS011;56298;49.246;9.410;2023-02-26T01:12:05;11.77;;;10.77;;
69185;SDS011;56298;49.246;9.410;2023-02-26T01:14:33;11.90;;;10.88;;
69185;SDS011;56298;49.246;9.410;2023-02-26T01:19:43;12.10;;;11.00;;
69185;SDS011;56298;49.246;9.410;2023-02-26T01:22:24;12.67;;;11.60;;
69185;SDS011;56298;49.246;9.410;2023-02-26T01:27:50;12.80;;;11.60;;
69185;SDS011;56298;49.246;9.410;2023-02-26T01:30:16;13.05;;;11.98;;
69185;SDS011;56298;49.246;9.410;2023-02-26T01:35:57;12.23;;;11.23;;
69185;SDS011;56298;49.246;9.410;2023-02-26T01:40:47;13.30;;;12.17;;
69185;SDS011;56298;49.246;9.410;2023-02-26T01:43:28;12.93;;;11.73;;
69185;SDS011;56298;49.246;9.410;2023-02-26T01:48:53;14.10;;;12.90;;
69185;SDS011;56298;49.246;9.410;2023-02-26T01:54:10;13.95;;;12.40;;
69185;SDS011;56298;49.246;9.410;2023-02-26T01:56:35;13.03;;;12.00;;
69185;SDS011;56298;49.246;9.410;2023-02-26T01:59:02;13.52;;;12.32;;
69185;SDS011;56298;49.246;9.410;2023-02-26T02:01:30;14.07;;;12.87;;
69185;SDS011;56298;49.246;9.410;2023-02-26T02:04:00;14.93;;;13.63;;
69185;SDS011;56298;49.246;9.410;2023-02-26T02:06:27;13.90;;;12.70;;
69185;SDS011;56298;49.246;9.410;2023-02-26T02:08:54;13.93;;;12.73;;
69185;SDS011;56298;49.246;9.410;2023-02-26T02:11:19;13.40;;;12.27;;
69185;SDS011;56298;49.246;9.410;2023-02-26T02:19:21;13.73;;;12.57;;
69185;SDS011;56298;49.246;9.410;2023-02-26T02:24:37;15.20;;;14.00;;
69185;SDS011;56298;49.246;9.410;2023-02-26T02:30:20;14.75;;;13.48;;
69185;SDS011;56298;49.246;9.410;2023-02-26T02:35:45;13.68;;;12.45;;
69185;SDS011;56298;49.246;9.410;2023-02-26T02:38:15;13.27;;;11.98;;
69185;SDS011;56298;49.246;9.410;2023-02-26T02:40:51;12.77;;;11.68;;
69185;SDS011;56298;49.246;9.410;2023-02-26T02:43:23;12.65;;;11.55;;
69185;SDS011;56298;49.246;9.410;2023-02-26T02:45:53;13.27;;;12.15;;
69185;SDS011;56298;49.246;9.410;2023-02-26T02:48:28;13.43;;;12.10;;
69185;SDS011;56298;49.246;9.410;2023-02-26T02:51:00;12.80;;;11.60;;
69185;SDS011;56298;49.246;9.410;2023-02-26T02:56:06;12.37;;;11.27;;
69185;SDS011;56298;49.246;9.410;2023-02-26T02:58:39;13.20;;;12.00;;
69185;SDS011;56298;49.246;9.410;2023-02-26T03:01:09;12.40;;;11.35;;
69185;SDS011;56298;49.246;9.410;2023-02-26T03:03:57;13.47;;;12.27;;
69185;SDS011;56298;49.246;9.410;2023-02-26T03:06:29;12.93;;;11.77;;
69185;SDS011;56298;49.246;9.410;2023-02-26T03:08:54;12.27;;;11.37;;
69185;SDS011;56298;49.246;9.410;2023-02-26T03:11:20;13.17;;;12.00;;
69185;SDS011;56298;49.246;9.410;2023-02-26T03:13:45;12.80;;;11.57;;
69185;SDS011;56298;49.246;9.410;2023-02-26T03:18:52;13.30;;;12.18;;
69185;SDS011;56298;49.246;9.410;2023-02-26T03:21:38;13.30;;;12.10;;
69185;SDS011;56298;49.246;9.410;2023-02-26T03:27:01;13.18;;;11.98;;
69185;SDS011;56298;49.246;9.410;2023-02-26T03:32:27;12.48;;;11.23;;
69185;SDS011;56298;49.246;9.410;2023-02-26T03:35:13;14.55;;;13.18;;
69185;SDS011;56298;49.246;9.410;2023-02-26T03:37:46;12.88;;;11.75;;
69185;SDS011;56298;49.246;9.410;2023-02-26T03:40:18;13.70;;;12.48;;
69185;SDS011;56298;49.246;9.410;2023-02-26T03:42:53;13.13;;;12.03;;
69185;SDS011;56298;49.246;9.410;2023-02-26T03:45:28;13.40;;;12.40;;
69185;SDS011;56298;49.246;9.410;2023-02-26T03:47:59;12.38;;;11.38;;
69185;SDS011;56298;49.246;9.410;2023-02-26T03:52:58;13.55;;;12.35;;
69185;SDS011;56298;49.246;9.410;2023-02-26T03:55:31;12.77;;;11.70;;
69185;SDS011;56298;49.246;9.410;2023-02-26T03:57:59;13.15;;;11.95;;
69185;SDS011;56298;49.246;9.410;2023-02-26T04:00:26;13.67;;;12.47;;
69185;SDS011;56298;49.246;9.410;2023-02-26T04:03:00;12.83;;;11.77;;
69185;SDS011;56298;49.246;9.410;2023-02-26T04:05:31;13.40;;;12.13;;
69185;SDS011;56298;49.246;9.410;2023-02-26T04:07:58;13.85;;;12.82;;
69185;SDS011;56298;49.246;9.410;2023-02-26T04:10:26;13.45;;;12.18;;
69185;SDS011;56298;49.246;9.410;2023-02-26T04:12:59;12.90;;;11.82;;
69185;SDS011;56298;49.246;9.410;2023-02-26T04:15:25;11.15;;;10.13;;
69185;SDS011;56298;49.246;9.410;2023-02-26T04:17:50;12.83;;;11.73;;
69185;SDS011;56298;49.246;9.410;2023-02-26T04:20:15;12.17;;;11.17;;
69185;SDS011;56298;49.246;9.410;2023-02-26T04:22:40;12.13;;;11.10;;
69185;SDS011;56298;49.246;9.410;2023-02-26T04:25:06;13.10;;;12.00;;
69185;SDS011;56298;49.246;9.410;2023-02-26T04:27:31;12.17;;;11.00;;
69185;SDS011;56298;49.246;9.410;2023-02-26T04:29:57;12.93;;;11.83;;
69185;SDS011;56298;49.246;9.410;2023-02-26T04:32:22;12.97;;;11.67;;
69185;SDS011;56298;49.246;9.410;2023-02-26T04:34:47;13.67;;;12.37;;
69185;SDS011;56298;49.246;9.410;2023-02-26T04:37:12;12.93;;;11.80;;
69185;SDS011;56298;49.246;9.410;2023-02-26T04:39:38;12.83;;;11.73;;
69185;SDS011;56298;49.246;9.410;2023-02-26T04:42:03;12.23;;;11.02;;
69185;SDS011;56298;49.246;9.410;2023-02-26T04:44:28;12.27;;;11.27;;
69185;SDS011;56298;49.246;9.410;2023-02-26T04:46:54;14.38;;;12.98;;
69185;SDS011;56298;49.246;9.410;2023-02-26T04:49:20;13.75;;;12.55;;
69185;SDS011;56298;49.246;9.410;2023-02-26T04:51:46;13.83;;;12.63;;
69185;SDS011;56298;49.246;9.410;2023-02-26T04:54:11;12.43;;;11.43;;
69185;SDS011;56298;49.246;9.410;2023-02-26T04:56:36;12.55;;;11.43;;
69185;SDS011;56298;49.246;9.410;2023-02-26T04:59:01;12.80;;;11.80;;
69185;SDS011;56298;49.246;9.410;2023-02-26T05:01:27;12.97;;;11.97;;
69185;SDS011;56298;49.246;9.410;2023-02-26T05:03:52;12.47;;;11.27;;
69185;SDS011;56298;49.246;9.410;2023-02-26T05:06:17;14.32;;;13.23;;
69185;SDS011;56298;49.246;9.410;2023-02-26T05:08:43;12.53;;;11.43;;
69185;SDS011;56298;49.246;9.410;2023-02-26T05:11:08;12.90;;;11.60;;
69185;SDS011;56298;49.246;9.410;2023-02-26T05:13:34;14.32;;;13.20;;
69185;SDS011;56298;49.246;9.410;2023-02-26T05:16:00;13.47;;;12.13;;
69185;SDS011;56298;49.246;9.410;2023-02-26T05:18:25;14.07;;;12.77;;
69185;SDS011;56298;49.246;9.410;2023-02-26T05:20:54;14.10;;;12.90;;
69185;SDS011;56298;49.246;9.410;2023-02-26T05:23:20;13.07;;;11.98;;
69185;SDS011;56298;49.246;9.410;2023-02-26T05:25:46;13.30;;;11.68;;
69185;SDS011;56298;49.246;9.410;2023-02-26T05:28:11;13.93;;;12.60;;
69185;SDS011;56298;49.246;9.410;2023-02-26T05:30:38;13.55;;;12.15;;
69185;SDS011;56298;49.246;9.410;2023-02-26T05:33:04;13.90;;;12.32;;
69185;SDS011;56298;49.246;9.410;2023-02-26T05:35:29;14.47;;;13.07;;
69185;SDS011;56298;49.246;9.410;2023-02-26T05:37:54;14.30;;;13.10;;
69185;SDS011;56298;49.246;9.410;2023-02-26T05:40:19;13.57;;;12.23;;
69185;SDS011;56298;49.246;9.410;2023-02-26T05:42:44;14.10;;;12.87;;
69185;SDS011;56298;49.246;9.410;2023-02-26T05:45:10;16.23;;;14.70;;
69185;SDS011;56298;49.246;9.410;2023-02-26T05:47:35;15.57;;;14.17;;
69185;SDS011;56298;49.246;9.410;2023-02-26T05:50:01;13.13;;;11.93;;
69185;SDS011;56298;49.246;9.410;2023-02-26T05:52:28;13.23;;;12.02;;
69185;SDS011;56298;49.246;9.410;2023-02-26T05:54:53;12.68;;;11.50;;
69185;SDS011;56298;49.246;9.410;2023-02-26T05:57:19;14.13;;;12.82;;
69185;SDS011;56298;49.246;9.410;2023-02-26T05:59:45;14.33;;;13.13;;
69185;SDS011;56298;49.246;9.410;2023-02-26T06:02:10;14.17;;;12.87;;
69185;SDS011;56298;49.246;9.410;2023-02-26T06:04:35;14.03;;;12.83;;
69185;SDS011;56298;49.246;9.410;2023-02-26T06:07:01;13.37;;;12.10;;
69185;SDS011;56298;49.246;9.410;2023-02-26T06:09:26;12.27;;;11.33;;
69185;SDS011;56298;49.246;9.410;2023-02-26T06:11:52;12.90;;;11.80;;
69185;SDS011;56298;49.246;9.410;2023-02-26T06:14:17;13.73;;;12.20;;
69185;SDS011;56298;49.246;9.410;2023-02-26T06:16:42;13.53;;;12.47;;
69185;SDS011;56298;49.246;9.410;2023-02-26T06:19:07;12.83;;;11.73;;
69185;SDS011;56298;49.246;9.410;2023-02-26T06:21:33;13.03;;;11.83;;
69185;SDS011;56298;49.246;9.410;2023-02-26T06:23:58;12.67;;;11.53;;
69185;SDS011;56298;49.246;9.410;2023-02-26T06:26:23;13.43;;;12.27;;
69185;SDS011;56298;49.246;9.410;2023-02-26T06:28:48;13.57;;;12.37;;
69185;SDS011;56298;49.246;9.410;2023-02-26T06:31:14;11.77;;;10.67;;
69185;SDS011;56298;49.246;9.410;2023-02-26T06:33:39;13.83;;;12.60;;
69185;SDS011;56298;49.246;9.410;2023-02-26T06:36:04;12.87;;;11.73;;
69185;SDS011;56298;49.246;9.410;2023-02-26T06:38:30;12.97;;;11.87;;
69185;SDS011;56298;49.246;9.410;2023-02-26T06:40:55;12.43;;;11.27;;
69185;SDS011;56298;49.246;9.410;2023-02-26T06:43:20;12.33;;;11.17;;
69185;SDS011;56298;49.246;9.410;2023-02-26T06:45:46;11.65;;;10.80;;
69185;SDS011;56298;49.246;9.410;2023-02-26T06:48:11;11.90;;;10.87;;
69185;SDS011;56298;49.246;9.410;2023-02-26T06:50:36;12.90;;;11.80;;
69185;SDS011;56298;49.246;9.410;2023-02-26T06:53:02;11.47;;;10.37;;
69185;SDS011;56298;49.246;9.410;2023-02-26T06:55:27;13.30;;;12.20;;
69185;SDS011;56298;49.246;9.410;2023-02-26T06:57:53;12.85;;;11.57;;
69185;SDS011;56298;49.246;9.410;2023-02-26T07:00:19;12.43;;;11.23;;
69185;SDS011;56298;49.246;9.410;2023-02-26T07:02:45;11.18;;;10.18;;
69185;SDS011;56298;49.246;9.410;2023-02-26T07:05:10;11.90;;;10.80;;
69185;SDS011;56298;49.246;9.410;2023-02-26T07:07:35;11.50;;;10.20;;
69185;SDS011;56298;49.246;9.410;2023-02-26T07:10:00;12.17;;;11.17;;
69185;SDS011;56298;49.246;9.410;2023-02-26T07:12:26;12.00;;;10.90;;
69185;SDS011;56298;49.246;9.410;2023-02-26T07:14:51;11.50;;;10.50;;
69185;SDS011;56298;49.246;9.410;2023-02-26T07:17:16;10.90;;;9.90;;
69185;SDS011;56298;49.246;9.410;2023-02-26T07:19:48;12.63;;;10.65;;
69185;SDS011;56298;49.246;9.410;2023-02-26T07:22:15;11.10;;;10.13;;
69185;SDS011;56298;49.246;9.410;2023-02-26T07:24:41;10.48;;;9.50;;
69185;SDS011;56298;49.246;9.410;2023-02-26T07:27:07;11.83;;;10.83;;
69185;SDS011;56298;49.246;9.410;2023-02-26T07:29:32;10.77;;;9.88;;
69185;SDS011;56298;49.246;9.410;2023-02-26T07:31:58;11.87;;;10.97;;
69185;SDS011;56298;49.246;9.410;2023-02-26T07:34:23;9.73;;;8.83;;
69185;SDS011;56298;49.246;9.410;2023-02-26T07:36:48;9.93;;;8.80;;
69185;SDS011;56298;49.246;9.410;2023-02-26T07:39:14;10.20;;;9.27;;
69185;SDS011;56298;49.246;9.410;2023-02-26T07:41:39;9.53;;;8.70;;
69185;SDS011;56298;49.246;9.410;2023-02-26T07:44:04;11.00;;;10.10;;
69185;SDS011;56298;49.246;9.410;2023-02-26T07:46:30;10.57;;;9.57;;
69185;SDS011;56298;49.246;9.410;2023-02-26T07:48:55;10.80;;;9.80;;
69185;SDS011;56298;49.246;9.410;2023-02-26T07:51:20;10.23;;;9.32;;
69185;SDS011;56298;49.246;9.410;2023-02-26T07:53:45;12.07;;;11.07;;
69185;SDS011;56298;49.246;9.410;2023-02-26T07:56:11;9.97;;;8.97;;
69185;SDS011;56298;49.246;9.410;2023-02-26T07:58:36;10.93;;;10.00;;
69185;SDS011;56298;49.246;9.410;2023-02-26T08:01:01;10.30;;;9.20;;
69185;SDS011;56298;49.246;9.410;2023-02-26T08:03:26;10.47;;;9.60;;
69185;SDS011;56298;49.246;9.410;2023-02-26T08:05:52;9.53;;;8.57;;
69185;SDS011;56298;49.246;9.410;2023-02-26T08:08:17;9.13;;;8.33;;
69185;SDS011;56298;49.246;9.410;2023-02-26T08:10:42;9.20;;;5.73;;
69185;SDS011;56298;49.246;9.410;2023-02-26T08:13:08;6.93;;;2.80;;
69185;SDS011;56298;49.246;9.410;2023-02-26T08:15:33;5.75;;;2.28;;
69185;SDS011;56298;49.246;9.410;2023-02-26T08:17:58;5.20;;;1.23;;
69185;SDS011;56298;49.246;9.410;2023-02-26T08:20:24;4.33;;;1.27;;
69185;SDS011;56298;49.246;9.410;2023-02-26T08:22:49;5.83;;;2.20;;
69185;SDS011;56298;49.246;9.410;2023-02-26T08:25:15;6.80;;;4.80;;
69185;SDS011;56298;49.246;9.410;2023-02-26T08:27:40;8.67;;;4.87;;
69185;SDS011;56298;49.246;9.410;2023-02-26T08:30:06;6.60;;;4.87;;
69185;SDS011;56298;49.246;9.410;2023-02-26T08:32:32;6.82;;;5.65;;
69185;SDS011;56298;49.246;9.410;2023-02-26T08:34:58;8.02;;;4.68;;
69185;SDS011;56298;49.246;9.410;2023-02-26T08:37:23;6.47;;;2.30;;
69185;SDS011;56298;49.246;9.410;2023-02-26T08:39:49;6.63;;;1.23;;
69185;SDS011;56298;49.246;9.410;2023-02-26T08:42:15;5.50;;;1.00;;
69185;SDS011;56298;49.246;9.410;2023-02-26T08:44:41;5.40;;;1.00;;
69185;SDS011;56298;49.246;9.410;2023-02-26T08:47:07;6.38;;;0.85;;
69185;SDS011;56298;49.246;9.410;2023-02-26T08:49:32;5.40;;;4.13;;
69185;SDS011;56298;49.246;9.410;2023-02-26T08:51:57;6.03;;;3.17;;
69185;SDS011;56298;49.246;9.410;2023-02-26T08:54:23;5.90;;;3.20;;
69185;SDS011;56298;49.246;9.410;2023-02-26T08:56:48;6.37;;;2.67;;
69185;SDS011;56298;49.246;9.410;2023-02-26T08:59:13;4.53;;;1.90;;
69185;SDS011;56298;49.246;9.410;2023-02-26T09:01:39;4.70;;;1.10;;
69185;SDS011;56298;49.246;9.410;2023-02-26T09:04:04;5.37;;;1.70;;
69185;SDS011;56298;49.246;9.410;2023-02-26T09:06:29;4.70;;;2.80;;
69185;SDS011;56298;49.246;9.410;2023-02-26T09:08:55;6.27;;;2.30;;
69185;SDS011;56298;49.246;9.410;2023-02-26T09:11:20;5.87;;;1.43;;
69185;SDS011;56298;49.246;9.410;2023-02-26T09:13:45;4.50;;;1.10;;
69185;SDS011;56298;49.246;9.410;2023-02-26T09:16:10;4.70;;;0.80;;
69185;SDS011;56298;49.246;9.410;2023-02-26T09:18:36;4.80;;;0.90;;
69185;SDS011;56298;49.246;9.410;2023-02-26T09:21:01;3.50;;;0.60;;
69185;SDS011;56298;49.246;9.410;2023-02-26T09:23:27;4.75;;;1.00;;
69185;SDS011;56298;49.246;9.410;2023-02-26T09:25:53;4.40;;;0.60;;
69185;SDS011;56298;49.246;9.410;2023-02-26T09:28:19;4.97;;;0.80;;
69185;SDS011;56298;49.246;9.410;2023-02-26T09:30:45;4.60;;;0.60;;
69185;SDS011;56298;49.246;9.410;2023-02-26T09:33:10;3.90;;;0.60;;
69185;SDS011;56298;49.246;9.410;2023-02-26T09:35:35;3.70;;;0.70;;
69185;SDS011;56298;49.246;9.410;2023-02-26T09:38:01;3.78;;;0.57;;
69185;SDS011;56298;49.246;9.410;2023-02-26T09:40:47;3.95;;;0.60;;
69185;SDS011;56298;49.246;9.410;2023-02-26T09:46:26;3.37;;;0.73;;
69185;SDS011;56298;49.246;9.410;2023-02-26T09:52:01;3.60;;;0.80;;
69185;SDS011;56298;49.246;9.410;2023-02-26T09:54:36;3.92;;;0.70;;
69185;SDS011;56298;49.246;9.410;2023-02-26T09:57:08;3.50;;;0.70;;
69185;SDS011;56298;49.246;9.410;2023-02-26T09:59:38;3.00;;;0.55;;
69185;SDS011;56298;49.246;9.410;2023-02-26T10:02:06;3.33;;;0.60;;
69185;SDS011;56298;49.246;9.410;2023-02-26T10:04:47;3.80;;;0.63;;
69185;SDS011;56298;49.246;9.410;2023-02-26T10:12:20;3.88;;;0.60;;
69185;SDS011;56298;49.246;9.410;2023-02-26T10:14:51;4.07;;;0.65;;
69185;SDS011;56298;49.246;9.410;2023-02-26T10:17:30;3.45;;;0.60;;
69185;SDS011;56298;49.246;9.410;2023-02-26T10:20:00;4.75;;;0.73;;
69185;SDS011;56298;49.246;9.410;2023-02-26T10:22:36;4.33;;;0.80;;
69185;SDS011;56298;49.246;9.410;2023-02-26T10:25:28;3.70;;;0.70;;
69185;SDS011;56298;49.246;9.410;2023-02-26T10:28:23;3.10;;;0.70;;
69185;SDS011;56298;49.246;9.410;2023-02-26T10:30:51;3.20;;;0.60;;
69185;SDS011;56298;49.246;9.410;2023-02-26T10:33:32;3.47;;;0.60;;
69185;SDS011;56298;49.246;9.410;2023-02-26T10:36:22;2.85;;;0.50;;
69185;SDS011;56298;49.246;9.410;2023-02-26T10:38:51;3.00;;;0.60;;
69185;SDS011;56298;49.246;9.410;2023-02-26T10:41:24;3.85;;;0.70;;
69185;SDS011;56298;49.246;9.410;2023-02-26T10:44:06;3.30;;;0.50;;
69185;SDS011;56298;49.246;9.410;2023-02-26T10:46:45;3.55;;;0.60;;
69185;SDS011;56298;49.246;9.410;2023-02-26T10:51:55;2.70;;;0.50;;
69185;SDS011;56298;49.246;9.410;2023-02-26T10:57:22;2.67;;;0.50;;
69185;SDS011;56298;49.246;9.410;2023-02-26T10:59:50;2.63;;;0.50;;
69185;SDS011;56298;49.246;9.410;2023-02-26T11:02:27;3.00;;;0.50;;
69185;SDS011;56298;49.246;9.410;2023-02-26T11:04:59;2.80;;;0.40;;
69185;SDS011;56298;49.246;9.410;2023-02-26T11:07:25;2.53;;;0.40;;
69185;SDS011;56298;49.246;9.410;2023-02-26T11:09:53;3.58;;;0.45;;
69185;SDS011;56298;49.246;9.410;2023-02-26T11:12:19;3.00;;;0.50;;
69185;SDS011;56298;49.246;9.410;2023-02-26T11:14:47;2.60;;;0.57;;
69185;SDS011;56298;49.246;9.410;2023-02-26T11:17:18;4.00;;;0.60;;
69185;SDS011;56298;49.246;9.410;2023-02-26T11:20:03;2.75;;;0.50;;
69185;SDS011;56298;49.246;9.410;2023-02-26T11:22:39;2.38;;;0.40;;
69185;SDS011;56298;49.246;9.410;2023-02-26T11:25:12;3.17;;;0.57;;
69185;SDS011;56298;49.246;9.410;2023-02-26T11:27:40;3.10;;;0.50;;
69185;SDS011;56298;49.246;9.410;2023-02-26T11:30:26;2.72;;;0.50;;
69185;SDS011;56298;49.246;9.410;2023-02-26T11:32:56;3.60;;;0.60;;
69185;SDS011;56298;49.246;9.410;2023-02-26T11:35:22;3.05;;;0.55;;
69185;SDS011;56298;49.246;9.410;2023-02-26T11:37:58;3.42;;;0.60;;
69185;SDS011;56298;49.246;9.410;2023-02-26T11:40:27;2.88;;;0.57;;
69185;SDS011;56298;49.246;9.410;2023-02-26T11:43:04;2.50;;;0.50;;
69185;SDS011;56298;49.246;9.410;2023-02-26T11:45:33;3.28;;;0.60;;
69185;SDS011;56298;49.246;9.410;2023-02-26T11:48:03;2.88;;;0.50;;
69185;SDS011;56298;49.246;9.410;2023-02-26T11:50:31;3.50;;;0.50;;
69185;SDS011;56298;49.246;9.410;2023-02-26T11:53:06;3.53;;;0.63;;
69185;SDS011;56298;49.246;9.410;2023-02-26T11:55:42;3.53;;;0.60;;
69185;SDS011;56298;49.246;9.410;2023-02-26T11:58:22;2.85;;;0.50;;
69185;SDS011;56298;49.246;9.410;2023-02-26T12:00:50;3.50;;;0.50;;
69185;SDS011;56298;49.246;9.410;2023-02-26T12:03:19;3.28;;;0.68;;
69185;SDS011;56298;49.246;9.410;2023-02-26T12:05:46;2.70;;;0.53;;
69185;SDS011;56298;49.246;9.410;2023-02-26T12:08:26;3.45;;;0.70;;
69185;SDS011;56298;49.246;9.410;2023-02-26T12:16:30;2.87;;;0.60;;
69185;SDS011;56298;49.246;9.410;2023-02-26T12:19:10;3.00;;;0.52;;
69185;SDS011;56298;49.246;9.410;2023-02-26T12:26:48;3.03;;;0.70;;
69185;SDS011;56298;49.246;9.410;2023-02-26T12:29:29;3.13;;;0.50;;
69185;SDS011;56298;49.246;9.410;2023-02-26T12:32:18;3.35;;;0.60;;
69185;SDS011;56298;49.246;9.410;2023-02-26T13:01:52;2.92;;;0.45;;
69185;SDS011;56298;49.246;9.410;2023-02-26T13:07:05;2.95;;;0.50;;
69185;SDS011;56298;49.246;9.410;2023-02-26T13:10:03;2.60;;;0.50;;
69185;SDS011;56298;49.246;9.410;2023-02-26T13:18:19;3.22;;;0.50;;
69185;SDS011;56298;49.246;9.410;2023-02-26T13:24:01;2.80;;;0.50;;
69185;SDS011;56298;49.246;9.410;2023-02-26T13:26:42;2.70;;;0.40;;
69185;SDS011;56298;49.246;9.410;2023-02-26T13:29:14;2.92;;;0.60;;
69185;SDS011;56298;49.246;9.410;2023-02-26T13:35:00;2.75;;;0.60;;
69185;SDS011;56298;49.246;9.410;2023-02-26T13:37:30;2.40;;;0.40;;
69185;SDS011;56298;49.246;9.410;2023-02-26T13:40:12;2.77;;;0.50;;
69185;SDS011;56298;49.246;9.410;2023-02-26T13:42:48;2.35;;;0.50;;
69185;SDS011;56298;49.246;9.410;2023-02-26T13:48:29;2.28;;;0.40;;
69185;SDS011;56298;49.246;9.410;2023-02-26T13:54:40;2.95;;;0.40;;
69185;SDS011;56298;49.246;9.410;2023-02-26T13:59:53;3.15;;;0.50;;
69185;SDS011;56298;49.246;9.410;2023-02-26T14:02:33;2.95;;;0.50;;
69185;SDS011;56298;49.246;9.410;2023-02-26T14:05:32;2.35;;;0.40;;
69185;SDS011;56298;49.246;9.410;2023-02-26T14:13:30;3.20;;;0.53;;
69185;SDS011;56298;49.246;9.410;2023-02-26T14:16:19;3.08;;;0.60;;
69185;SDS011;56298;49.246;9.410;2023-02-26T14:23:51;2.92;;;0.50;;
69185;SDS011;56298;49.246;9.410;2023-02-26T14:26:21;3.00;;;0.57;;
69185;SDS011;56298;49.246;9.410;2023-02-26T14:28:55;2.67;;;0.40;;
69185;SDS011;56298;49.246;9.410;2023-02-26T14:31:46;2.97;;;0.60;;
69185;SDS011;56298;49.246;9.410;2023-02-26T14:34:21;2.60;;;0.47;;
69185;SDS011;56298;49.246;9.410;2023-02-26T14:36:55;2.92;;;0.50;;
69185;SDS011;56298;49.246;9.410;2023-02-26T14:39:30;2.97;;;0.65;;
69185;SDS011;56298;49.246;9.410;2023-02-26T14:42:03;3.67;;;0.60;;
69185;SDS011;56298;49.246;9.410;2023-02-26T14:44:36;3.55;;;0.50;;
69185;SDS011;56298;49.246;9.410;2023-02-26T14:47:07;2.75;;;0.50;;
69185;SDS011;56298;49.246;9.410;2023-02-26T14:49:37;3.00;;;0.60;;
69185;SDS011;56298;49.246;9.410;2023-02-26T14:52:08;4.00;;;0.63;;
69185;SDS011;56298;49.246;9.410;2023-02-26T14:57:47;3.35;;;0.60;;
69185;SDS011;56298;49.246;9.410;2023-02-26T15:00:27;3.00;;;0.60;;
69185;SDS011;56298;49.246;9.410;2023-02-26T15:08:32;4.25;;;0.50;;
69185;SDS011;56298;49.246;9.410;2023-02-26T15:16:26;3.10;;;0.55;;
69185;SDS011;56298;49.246;9.410;2023-02-26T15:19:03;3.03;;;0.55;;
69185;SDS011;56298;49.246;9.410;2023-02-26T15:24:09;3.65;;;0.47;;
69185;SDS011;56298;49.246;9.410;2023-02-26T15:26:37;3.58;;;0.60;;
69185;SDS011;56298;49.246;9.410;2023-02-26T15:29:08;3.08;;;0.60;;
69185;SDS011;56298;49.246;9.410;2023-02-26T15:31:52;2.85;;;0.50;;
69185;SDS011;56298;49.246;9.410;2023-02-26T15:34:19;3.42;;;0.40;;
69185;SDS011;56298;49.246;9.410;2023-02-26T15:36:47;2.92;;;0.50;;
69185;SDS011;56298;49.246;9.410;2023-02-26T15:39:14;2.80;;;0.50;;
69185;SDS011;56298;49.246;9.410;2023-02-26T15:41:41;3.03;;;0.57;;
69185;SDS011;56298;49.246;9.410;2023-02-26T15:44:09;2.95;;;0.50;;
69185;SDS011;56298;49.246;9.410;2023-02-26T15:46:41;3.67;;;0.60;;
69185;SDS011;56298;49.246;9.410;2023-02-26T15:49:14;2.83;;;0.50;;
69185;SDS011;56298;49.246;9.410;2023-02-26T15:52:01;2.65;;;0.40;;
69185;SDS011;56298;49.246;9.410;2023-02-26T15:54:31;3.30;;;0.50;;
69185;SDS011;56298;49.246;9.410;2023-02-26T15:57:06;2.87;;;0.50;;
69185;SDS011;56298;49.246;9.410;2023-02-26T15:59:33;2.80;;;0.40;;
69185;SDS011;56298;49.246;9.410;2023-02-26T16:02:15;3.95;;;0.50;;
69185;SDS011;56298;49.246;9.410;2023-02-26T16:04:44;3.08;;;0.50;;
69185;SDS011;56298;49.246;9.410;2023-02-26T16:07:10;3.47;;;0.50;;
69185;SDS011;56298;49.246;9.410;2023-02-26T16:09:55;2.50;;;0.40;;
69185;SDS011;56298;49.246;9.410;2023-02-26T16:12:21;3.65;;;0.40;;
69185;SDS011;56298;49.246;9.410;2023-02-26T16:14:59;2.70;;;0.50;;
69185;SDS011;56298;49.246;9.410;2023-02-26T16:17:30;3.03;;;0.43;;
69185;SDS011;56298;49.246;9.410;2023-02-26T16:19:59;2.57;;;0.40;;
69185;SDS011;56298;49.246;9.410;2023-02-26T16:22:30;2.70;;;0.43;;
69185;SDS011;56298;49.246;9.410;2023-02-26T16:24:59;2.92;;;0.50;;
69185;SDS011;56298;49.246;9.410;2023-02-26T16:27:29;3.28;;;0.50;;
69185;SDS011;56298;49.246;9.410;2023-02-26T16:29:56;4.25;;;0.50;;
69185;SDS011;56298;49.246;9.410;2023-02-26T16:32:24;3.23;;;0.50;;
69185;SDS011;56298;49.246;9.410;2023-02-26T16:34:53;2.90;;;0.50;;
69185;SDS011;56298;49.246;9.410;2023-02-26T16:39:54;2.83;;;0.50;;
69185;SDS011;56298;49.246;9.410;2023-02-26T16:42:35;3.22;;;0.60;;
69185;SDS011;56298;49.246;9.410;2023-02-26T16:48:02;3.97;;;1.15;;
69185;SDS011;56298;49.246;9.410;2023-02-26T16:50:32;3.40;;;1.50;;
69185;SDS011;56298;49.246;9.410;2023-02-26T16:53:06;3.20;;;0.80;;
69185;SDS011;56298;49.246;9.410;2023-02-26T16:55:34;3.30;;;0.90;;
69185;SDS011;56298;49.246;9.410;2023-02-26T16:58:03;3.78;;;2.05;;
69185;SDS011;56298;49.246;9.410;2023-02-26T17:00:31;3.88;;;2.03;;
69185;SDS011;56298;49.246;9.410;2023-02-26T17:02:59;4.28;;;3.72;;
69185;SDS011;56298;49.246;9.410;2023-02-26T17:05:32;4.88;;;4.38;;
69185;SDS011;56298;49.246;9.410;2023-02-26T17:09:00;4.70;;;4.27;;
69185;SDS011;56298;49.246;9.410;2023-02-26T17:11:00;4.97;;;4.05;;
69185;SDS011;56298;49.246;9.410;2023-02-26T17:13:29;5.97;;;5.47;;
69185;SDS011;56298;49.246;9.410;2023-02-26T17:16:00;5.80;;;5.30;;
69185;SDS011;56298;49.246;9.410;2023-02-26T17:18:26;6.50;;;6.00;;
69185;SDS011;56298;49.246;9.410;2023-02-26T17:20:52;5.80;;;4.60;;
69185;SDS011;56298;49.246;9.410;2023-02-26T17:23:18;5.40;;;4.90;;
69185;SDS011;56298;49.246;9.410;2023-02-26T17:25:47;6.10;;;4.60;;
69185;SDS011;56298;49.246;9.410;2023-02-26T17:28:20;6.90;;;6.30;;
69185;SDS011;56298;49.246;9.410;2023-02-26T17:30:45;6.50;;;5.93;;
69185;SDS011;56298;49.246;9.410;2023-02-26T17:33:12;6.97;;;6.37;;